createdAt,value
2022-10-22T00:00:13.064Z,101918.49
2022-10-22T00:01:16.055Z,101921.20
2022-10-22T00:02:21.849Z,101921.91
2022-10-22T00:03:24.806Z,101914.64
2022-10-22T00:04:32.748Z,101914.49
2022-10-22T00:05:32.543Z,101915.34
2022-10-22T00:06:35.386Z,101916.02
2022-10-22T00:07:39.025Z,101911.31
2022-10-22T00:08:42.209Z,101912.02
2022-10-22T00:09:45.501Z,101911.84
2022-10-22T00:10:48.446Z,101910.83
2022-10-22T00:11:51.463Z,101903.70
2022-10-22T00:12:54.341Z,101911.69
2022-10-22T00:13:57.937Z,101897.99
2022-10-22T00:15:01.154Z,101903.23
2022-10-22T00:16:04.319Z,101895.10
2022-10-22T00:17:10.552Z,101896.80
2022-10-22T00:18:11.893Z,101896.13
2022-10-22T00:19:14.918Z,101894.09
2022-10-22T00:20:18.096Z,101895.95
2022-10-22T00:21:21.058Z,101906.80
2022-10-22T00:22:23.909Z,101899.70
2022-10-22T00:23:26.730Z,101905.27
2022-10-22T00:24:29.641Z,101908.98
2022-10-22T00:25:34.967Z,101901.00
2022-10-22T00:26:39.174Z,101903.70
2022-10-22T00:27:42.878Z,101898.47
2022-10-22T00:28:46.128Z,101892.34
2022-10-22T00:29:48.982Z,101892.63
2022-10-22T00:30:59.503Z,101894.67
2022-10-22T00:32:03.289Z,101886.16
2022-10-22T00:33:06.215Z,101890.02
2022-10-22T00:34:09.152Z,101886.64
2022-10-22T00:35:12.004Z,101886.64
2022-10-22T00:36:16.661Z,101888.48
2022-10-22T00:37:19.589Z,101885.08
2022-10-22T00:38:22.529Z,101887.08
2022-10-22T00:39:27.231Z,101880.98
2022-10-22T00:40:30.246Z,101887.41
2022-10-22T00:41:33.762Z,101885.84
2022-10-22T00:42:36.628Z,101884.31
2022-10-22T00:43:59.665Z,101888.16
2022-10-22T00:45:18.148Z,101889.34
2022-10-22T00:46:21.268Z,101878.13
2022-10-22T00:47:25.599Z,101887.54
2022-10-22T00:48:31.195Z,101883.30
2022-10-22T00:49:34.490Z,101886.16
2022-10-22T00:50:46.974Z,101882.77
2022-10-22T00:51:49.997Z,101891.03
2022-10-22T00:52:54.811Z,101882.34
2022-10-22T00:54:04.097Z,101878.97
2022-10-22T00:55:08.011Z,101879.96
2022-10-22T00:56:11.920Z,101884.52
2022-10-22T00:57:16.293Z,101895.50
2022-10-22T00:58:21.953Z,101893.96
2022-10-22T00:59:25.055Z,101894.11
2022-10-22T01:00:28.118Z,101899.84
2022-10-22T01:01:31.815Z,101896.42
2022-10-22T01:02:34.863Z,101898.38
2022-10-22T01:03:37.689Z,101895.00
2022-10-22T01:04:40.785Z,101896.00
2022-10-22T01:05:55.881Z,101891.58
2022-10-22T01:06:58.739Z,101889.02
2022-10-22T01:08:01.867Z,101885.31
2022-10-22T01:09:13.903Z,101889.02
2022-10-22T01:10:32.483Z,101884.45
2022-10-22T01:11:47.799Z,101884.45
2022-10-22T01:13:14.050Z,101893.75
2022-10-22T01:14:23.389Z,101890.33
2022-10-22T01:15:41.814Z,101887.09
2022-10-22T01:17:07.664Z,101889.08
2022-10-22T01:18:17.047Z,101896.52
2022-10-22T01:19:56.909Z,101897.80
2022-10-22T01:21:09.385Z,101891.71
2022-10-22T01:22:21.752Z,101902.95
2022-10-22T01:23:47.584Z,101898.72
2022-10-22T01:25:09.124Z,101891.73
2022-10-22T01:27:40.916Z,101892.19
2022-10-22T01:29:02.428Z,101892.19
2022-10-22T01:30:07.463Z,101901.30
2022-10-22T01:31:13.337Z,101900.45
2022-10-22T01:32:25.200Z,101897.91
2022-10-22T01:33:29.987Z,101904.01
2022-10-22T01:34:33.972Z,101902.33
2022-10-22T01:35:39.888Z,101907.73
2022-10-22T01:36:44.820Z,101904.18
2022-10-22T01:38:00.248Z,101911.27
2022-10-22T01:39:05.195Z,101901.48
2022-10-22T01:40:10.510Z,101907.73
2022-10-22T01:41:14.057Z,101903.33
2022-10-22T01:42:17.010Z,101906.03
2022-10-22T01:43:20.103Z,101906.03
2022-10-22T01:44:28.883Z,101906.03
2022-10-22T01:45:35.444Z,101903.33
2022-10-22T01:46:38.831Z,101909.73
2022-10-22T01:48:01.983Z,101909.73
2022-10-22T01:49:19.930Z,101906.17
2022-10-22T01:50:44.167Z,101899.19
2022-10-22T01:52:13.413Z,101912.03
2022-10-22T01:53:34.457Z,101912.03
2022-10-22T01:54:50.935Z,101910.46
2022-10-22T01:56:03.313Z,101911.63
2022-10-22T01:57:25.043Z,101912.90
2022-10-22T01:58:34.681Z,101913.92
2022-10-22T02:01:03.905Z,101904.10
2022-10-22T02:02:27.165Z,101904.10
2022-10-22T02:03:36.567Z,101913.92
2022-10-22T02:04:52.088Z,101904.10
2022-10-22T02:05:58.868Z,101901.40
2022-10-22T02:07:05.274Z,101910.37
2022-10-22T02:08:11.676Z,101898.55
2022-10-22T02:09:17.834Z,101902.08
2022-10-22T02:10:22.521Z,101906.36
2022-10-22T02:11:26.125Z,101902.66
2022-10-22T02:12:31.936Z,101902.52
2022-10-22T02:13:38.367Z,101895.09
2022-10-22T02:14:43.728Z,101906.62
2022-10-22T02:15:50.282Z,101902.92
2022-10-22T02:16:53.848Z,101911.89
2022-10-22T02:17:59.575Z,101911.04
2022-10-22T02:19:06.169Z,101909.33
2022-10-22T02:20:16.291Z,101911.45
2022-10-22T02:21:19.881Z,101911.45
2022-10-22T02:22:24.361Z,101904.37
2022-10-22T02:23:28.144Z,101904.37
2022-10-22T02:24:31.438Z,101907.08
2022-10-22T02:25:37.807Z,101902.52
2022-10-22T02:26:50.296Z,101907.08
2022-10-22T02:28:22.364Z,101914.33
2022-10-22T02:29:31.683Z,101915.33
2022-10-22T02:30:37.777Z,101917.48
2022-10-22T02:31:43.974Z,101919.47
2022-10-22T02:32:53.324Z,101919.61
2022-10-22T02:33:59.275Z,101923.31
2022-10-22T02:35:03.286Z,101919.75
2022-10-22T02:36:07.814Z,101921.63
2022-10-22T02:37:10.788Z,101923.48
2022-10-22T02:38:14.650Z,101929.74
2022-10-22T02:39:20.201Z,101924.34
2022-10-22T02:40:24.100Z,101921.63
2022-10-22T02:41:27.814Z,101927.18
2022-10-22T02:42:30.881Z,101919.06
2022-10-22T02:43:40.272Z,101930.88
2022-10-22T02:44:43.345Z,101931.87
2022-10-22T02:45:46.891Z,101929.34
2022-10-22T02:46:50.367Z,101942.99
2022-10-22T02:47:53.352Z,101935.02
2022-10-22T02:48:56.316Z,101939.70
2022-10-22T02:49:59.331Z,101940.73
2022-10-22T02:51:02.145Z,101938.16
2022-10-22T02:52:05.383Z,101931.91
2022-10-22T02:53:08.267Z,101937.31
2022-10-22T02:54:11.189Z,101932.76
2022-10-22T02:55:14.214Z,101935.60
2022-10-22T02:56:17.534Z,101927.63
2022-10-22T02:58:24.247Z,101940.33
2022-10-22T02:59:27.131Z,101929.65
2022-10-22T03:00:30.272Z,101941.31
2022-10-22T03:01:33.284Z,101943.16
2022-10-22T03:02:36.128Z,101937.89
2022-10-22T03:03:38.839Z,101940.59
2022-10-22T03:04:41.703Z,101938.75
2022-10-22T03:05:45.016Z,101938.75
2022-10-22T03:06:48.674Z,101934.20
2022-10-22T03:07:51.625Z,101937.89
2022-10-22T03:08:54.558Z,101933.34
2022-10-22T03:09:57.776Z,101939.61
2022-10-22T03:11:00.838Z,101928.66
2022-10-22T03:12:04.140Z,101934.75
2022-10-22T03:13:06.999Z,101931.19
2022-10-22T03:14:10.021Z,101927.48
2022-10-22T03:15:12.907Z,101928.34
2022-10-22T03:16:16.641Z,101934.47
2022-10-22T03:17:19.694Z,101939.02
2022-10-22T03:18:22.549Z,101939.88
2022-10-22T03:19:25.710Z,101929.92
2022-10-22T03:20:28.709Z,101938.89
2022-10-22T03:21:44.452Z,101940.73
2022-10-22T03:22:47.401Z,101942.58
2022-10-22T03:23:50.600Z,101940.02
2022-10-22T03:24:57.796Z,101936.45
2022-10-22T03:26:01.044Z,101941.86
2022-10-22T03:27:03.902Z,101937.31
2022-10-22T03:28:10.530Z,101941.01
2022-10-22T03:29:15.272Z,101943.71
2022-10-22T03:30:18.396Z,101945.56
2022-10-22T03:31:21.337Z,101943.84
2022-10-22T03:32:24.149Z,101941.31
2022-10-22T03:33:27.007Z,101944.02
2022-10-22T03:34:29.954Z,101947.71
2022-10-22T03:35:35.739Z,101952.41
2022-10-22T03:36:40.289Z,101950.69
2022-10-22T03:37:43.567Z,101955.27
2022-10-22T03:38:46.900Z,101955.27
2022-10-22T03:39:50.740Z,101952.70
2022-10-22T03:40:53.577Z,101960.09
2022-10-22T03:41:57.002Z,101963.79
2022-10-22T03:42:59.976Z,101960.23
2022-10-22T03:44:04.398Z,101960.23
2022-10-22T03:45:08.471Z,101962.11
2022-10-22T03:46:11.691Z,101960.40
2022-10-22T03:47:14.831Z,101956.70
2022-10-22T03:48:17.683Z,101963.79
2022-10-22T03:49:20.683Z,101960.40
2022-10-22T03:50:23.508Z,101955.84
2022-10-22T03:51:27.554Z,101961.25
2022-10-22T03:52:33.980Z,101964.81
2022-10-22T03:53:37.074Z,101953.28
2022-10-22T03:54:41.650Z,101954.27
2022-10-22T03:55:44.519Z,101958.96
2022-10-22T03:56:47.490Z,101962.69
2022-10-22T03:57:50.231Z,101958.27
2022-10-22T03:58:58.762Z,101959.27
2022-10-22T04:00:01.735Z,101957.55
2022-10-22T04:01:06.296Z,101957.69
2022-10-22T04:02:11.088Z,101955.84
2022-10-22T04:03:14.161Z,101954.30
2022-10-22T04:04:17.124Z,101958.71
2022-10-22T04:05:20.108Z,101963.26
2022-10-22T04:06:23.441Z,101963.26
2022-10-22T04:07:26.526Z,101958.84
2022-10-22T04:08:29.457Z,101960.69
2022-10-22T04:09:33.195Z,101960.69
2022-10-22T04:10:36.283Z,101955.29
2022-10-22T04:11:39.319Z,101961.55
2022-10-22T04:12:42.180Z,101959.84
2022-10-22T04:13:45.150Z,101958.98
2022-10-22T04:14:47.977Z,101954.43
2022-10-22T04:15:51.555Z,101957.00
2022-10-22T04:16:55.066Z,101958.84
2022-10-22T04:17:57.930Z,101951.59
2022-10-22T04:19:00.892Z,101957.00
2022-10-22T04:20:04.461Z,101954.30
2022-10-22T04:21:09.023Z,101963.26
2022-10-22T04:22:11.858Z,101959.70
2022-10-22T04:23:14.717Z,101959.56
2022-10-22T04:24:17.519Z,101957.55
2022-10-22T04:25:20.355Z,101962.95
2022-10-22T04:26:23.584Z,101965.66
2022-10-22T04:27:31.691Z,101956.86
2022-10-22T04:28:35.051Z,101956.86
2022-10-22T04:29:37.935Z,101954.30
2022-10-22T04:30:40.771Z,101959.56
2022-10-22T04:31:43.766Z,101958.71
2022-10-22T04:32:46.878Z,101959.56
2022-10-22T04:33:57.661Z,101959.56
2022-10-22T04:35:00.543Z,101967.67
2022-10-22T04:36:18.250Z,101968.36
2022-10-22T04:37:21.227Z,101967.38
2022-10-22T04:38:24.137Z,101971.78
2022-10-22T04:39:27.228Z,101971.78
2022-10-22T04:40:30.106Z,101978.05
2022-10-22T04:41:35.945Z,101972.64
2022-10-22T04:42:38.881Z,101976.03
2022-10-22T04:43:42.496Z,101969.63
2022-10-22T04:44:45.831Z,101978.46
2022-10-22T04:45:48.716Z,101966.66
2022-10-22T04:46:51.625Z,101975.63
2022-10-22T04:47:54.628Z,101970.05
2022-10-22T04:48:57.788Z,101970.05
2022-10-22T04:50:01.040Z,101971.77
2022-10-22T04:51:04.991Z,101976.17
2022-10-22T04:52:07.894Z,101967.08
2022-10-22T04:53:10.772Z,101973.17
2022-10-22T04:54:14.955Z,101969.47
2022-10-22T04:55:18.290Z,101974.03
2022-10-22T04:56:25.179Z,101980.28
2022-10-22T04:57:31.325Z,101980.28
2022-10-22T04:58:34.565Z,101980.28
2022-10-22T04:59:37.451Z,101974.88
2022-10-22T05:00:40.500Z,101981.14
2022-10-22T05:01:44.345Z,101983.84
2022-10-22T05:02:51.180Z,101984.70
2022-10-22T05:03:56.694Z,101987.41
2022-10-22T05:04:59.644Z,101982.99
2022-10-22T05:06:03.271Z,101986.69
2022-10-22T05:07:06.433Z,101983.30
2022-10-22T05:08:09.308Z,101986.13
2022-10-22T05:09:15.114Z,101989.83
2022-10-22T05:10:18.794Z,101989.14
2022-10-22T05:11:33.503Z,101990.98
2022-10-22T05:12:36.375Z,101988.28
2022-10-22T05:13:39.194Z,101995.53
2022-10-22T05:14:44.646Z,101985.58
2022-10-22T05:15:47.299Z,101988.28
2022-10-22T05:16:51.151Z,101989.14
2022-10-22T05:17:54.322Z,101994.38
2022-10-22T05:18:59.220Z,101994.23
2022-10-22T05:20:02.214Z,101993.25
2022-10-22T05:21:14.439Z,101997.67
2022-10-22T05:22:17.499Z,101991.23
2022-10-22T05:23:20.407Z,101997.50
2022-10-22T05:24:23.366Z,102001.91
2022-10-22T05:25:26.458Z,101998.22
2022-10-22T05:26:29.529Z,102002.63
2022-10-22T05:27:32.482Z,101989.97
2022-10-22T05:28:35.410Z,101993.53
2022-10-22T05:29:38.266Z,101991.52
2022-10-22T05:30:41.171Z,101995.08
2022-10-22T05:31:44.428Z,101996.79
2022-10-22T05:32:47.546Z,101997.64
2022-10-22T05:33:50.607Z,101997.64
2022-10-22T05:34:53.460Z,102002.05
2022-10-22T05:35:56.520Z,102000.21
2022-10-22T05:36:59.771Z,102010.00
2022-10-22T05:38:02.570Z,102000.90
2022-10-22T05:39:05.879Z,101998.91
2022-10-22T05:40:19.236Z,102002.34
2022-10-22T05:41:23.396Z,102004.73
2022-10-22T05:42:28.129Z,102000.05
2022-10-22T05:43:31.500Z,102001.45
2022-10-22T05:44:34.529Z,102007.55
2022-10-22T05:45:41.564Z,102005.56
2022-10-22T05:46:44.666Z,102008.98
2022-10-22T05:47:47.622Z,102006.97
2022-10-22T05:48:52.141Z,102018.37
2022-10-22T05:49:56.774Z,102011.80
2022-10-22T05:51:05.540Z,102016.08
2022-10-22T05:52:08.477Z,102019.33
2022-10-22T05:53:11.607Z,102015.63
2022-10-22T05:54:21.683Z,102023.61
2022-10-22T05:55:24.571Z,102020.73
2022-10-22T05:56:29.081Z,102025.31
2022-10-22T05:57:32.026Z,102026.00
2022-10-22T05:58:35.966Z,102030.42
2022-10-22T05:59:39.121Z,102025.73
2022-10-22T06:00:42.003Z,102024.56
2022-10-22T06:01:45.082Z,102019.87
2022-10-22T06:02:51.409Z,102024.97
2022-10-22T06:03:56.169Z,102021.27
2022-10-22T06:04:59.619Z,102019.28
2022-10-22T06:06:06.028Z,102015.41
2022-10-22T06:07:12.411Z,102019.83
2022-10-22T06:08:18.338Z,102020.37
2022-10-22T06:09:26.610Z,102013.69
2022-10-22T06:10:29.917Z,102014.23
2022-10-22T06:11:35.105Z,102015.63
2022-10-22T06:12:37.861Z,102013.67
2022-10-22T06:13:40.914Z,102013.21
2022-10-22T06:14:43.849Z,102011.91
2022-10-22T06:15:46.815Z,102017.03
2022-10-22T06:16:50.134Z,102006.75
2022-10-22T06:17:53.077Z,102010.03
2022-10-22T06:18:58.144Z,102014.13
2022-10-22T06:20:01.169Z,102018.55
2022-10-22T06:21:09.656Z,102009.25
2022-10-22T06:22:12.678Z,102026.07
2022-10-22T06:23:15.910Z,102009.65
2022-10-22T06:24:19.039Z,102020.02
2022-10-22T06:25:22.242Z,102016.03
2022-10-22T06:26:25.904Z,102013.00
2022-10-22T06:27:28.878Z,102021.84
2022-10-22T06:28:32.592Z,102027.94
2022-10-22T06:29:35.438Z,102032.36
2022-10-22T06:30:41.751Z,102021.52
2022-10-22T06:31:43.115Z,102022.38
2022-10-22T06:32:46.024Z,102030.36
2022-10-22T06:33:49.145Z,102025.63
2022-10-22T06:34:52.133Z,102021.91
2022-10-22T06:35:55.128Z,102017.20
2022-10-22T06:36:57.961Z,102020.63
2022-10-22T06:38:00.907Z,102018.45
2022-10-22T06:39:04.669Z,102011.17
2022-10-22T06:40:08.639Z,102015.42
2022-10-22T06:41:16.499Z,102022.55
2022-10-22T06:42:19.428Z,102014.42
2022-10-22T06:43:24.026Z,102009.86
2022-10-22T06:44:26.870Z,102020.55
2022-10-22T06:45:29.748Z,102015.98
2022-10-22T06:46:32.776Z,102019.55
2022-10-22T06:47:35.740Z,102018.70
2022-10-22T06:48:39.726Z,102026.83
2022-10-22T06:49:42.671Z,102015.28
2022-10-22T06:50:45.546Z,102021.70
2022-10-22T06:51:53.335Z,102019.84
2022-10-22T06:52:56.208Z,102016.13
2022-10-22T06:53:59.330Z,102014.13
2022-10-22T06:55:02.180Z,102012.09
2022-10-22T06:56:07.339Z,102020.80
2022-10-22T06:57:10.293Z,102015.20
2022-10-22T06:58:13.336Z,102013.05
2022-10-22T06:59:16.328Z,102020.00
2022-10-22T07:00:19.701Z,102022.57
2022-10-22T07:01:31.285Z,102025.98
2022-10-22T07:02:34.376Z,102023.09
2022-10-22T07:03:38.658Z,102015.67
2022-10-22T07:04:41.419Z,102020.09
2022-10-22T07:05:44.578Z,102019.09
2022-10-22T07:06:47.656Z,102015.35
2022-10-22T07:07:50.937Z,102008.93
2022-10-22T07:08:55.808Z,102011.50
2022-10-22T07:09:58.779Z,102010.49
2022-10-22T07:11:17.174Z,102014.91
2022-10-22T07:12:20.291Z,102019.16
2022-10-22T07:13:23.441Z,102012.73
2022-10-22T07:14:26.315Z,102011.73
2022-10-22T07:15:29.553Z,102010.55
2022-10-22T07:16:32.716Z,102005.98
2022-10-22T07:17:35.683Z,102009.25
2022-10-22T07:18:39.690Z,102009.25
2022-10-22T07:19:42.539Z,102007.21
2022-10-22T07:20:47.265Z,102013.20
2022-10-22T07:21:50.410Z,102010.30
2022-10-22T07:22:53.983Z,102013.58
2022-10-22T07:23:58.529Z,102016.96
2022-10-22T07:25:05.223Z,102011.39
2022-10-22T07:26:07.937Z,102007.67
2022-10-22T07:27:11.860Z,102013.77
2022-10-22T07:28:14.796Z,102002.92
2022-10-22T07:29:17.926Z,102011.77
2022-10-22T07:30:20.944Z,102004.48
2022-10-22T07:31:23.700Z,102014.48
2022-10-22T07:32:26.615Z,101999.91
2022-10-22T07:33:29.622Z,102009.77
2022-10-22T07:34:32.567Z,102007.72
2022-10-22T07:35:37.387Z,102009.28
2022-10-22T07:36:40.330Z,102006.23
2022-10-22T07:37:43.397Z,102007.09
2022-10-22T07:38:48.689Z,102001.37
2022-10-22T07:39:51.824Z,102003.89
2022-10-22T07:40:55.057Z,102009.17
2022-10-22T07:41:58.261Z,102011.41
2022-10-22T07:43:01.406Z,102002.26
2022-10-22T07:44:04.370Z,102006.53
2022-10-22T07:45:08.185Z,102003.48
2022-10-22T07:46:11.815Z,102008.77
2022-10-22T07:47:14.771Z,102010.14
2022-10-22T07:48:17.910Z,102005.41
2022-10-22T07:49:20.876Z,102006.08
2022-10-22T07:50:23.987Z,102001.20
2022-10-22T07:51:26.802Z,102004.59
2022-10-22T07:52:29.732Z,102001.73
2022-10-22T07:53:32.770Z,102006.00
2022-10-22T07:54:35.733Z,102004.80
2022-10-22T07:55:38.601Z,101999.08
2022-10-22T07:56:41.558Z,102010.45
2022-10-22T07:57:44.678Z,102001.81
2022-10-22T07:58:47.544Z,102003.19
2022-10-22T07:59:50.669Z,102005.44
2022-10-22T08:00:59.959Z,102006.81
2022-10-22T08:02:02.927Z,102002.75
2022-10-22T08:03:06.003Z,102002.59
2022-10-22T08:04:09.484Z,101999.72
2022-10-22T08:05:12.943Z,102005.82
2022-10-22T08:06:17.112Z,102008.23
2022-10-22T08:07:20.112Z,102007.03
2022-10-22T08:08:27.046Z,102004.16
2022-10-22T08:09:28.396Z,102001.96
2022-10-22T08:10:31.513Z,102004.52
2022-10-22T08:11:34.464Z,101997.07
2022-10-22T08:12:37.615Z,102007.59
2022-10-22T08:13:45.078Z,102001.84
2022-10-22T08:14:45.719Z,101993.52
2022-10-22T08:15:49.749Z,101996.92
2022-10-22T08:16:53.516Z,101988.43
2022-10-22T08:17:56.789Z,101992.70
2022-10-22T08:18:59.664Z,101986.92
2022-10-22T08:20:03.115Z,101985.44
2022-10-22T08:21:06.548Z,101992.27
2022-10-22T08:22:09.476Z,101994.63
2022-10-22T08:23:12.298Z,101994.63
2022-10-22T08:24:15.188Z,101990.75
2022-10-22T08:25:18.618Z,101994.29
2022-10-22T08:26:21.577Z,101987.69
2022-10-22T08:27:24.592Z,101988.38
2022-10-22T08:28:29.068Z,101988.03
2022-10-22T08:29:31.972Z,101989.39
2022-10-22T08:30:37.419Z,101986.36
2022-10-22T08:31:40.295Z,101987.02
2022-10-22T08:32:43.679Z,101988.41
2022-10-22T08:33:46.799Z,101989.06
2022-10-22T08:34:49.922Z,101979.89
2022-10-22T08:35:53.422Z,101987.89
2022-10-22T08:36:56.575Z,101982.30
2022-10-22T08:37:59.665Z,101982.96
2022-10-22T08:39:02.488Z,101982.64
2022-10-22T08:40:06.700Z,101980.58
2022-10-22T08:41:16.248Z,101982.13
2022-10-22T08:42:39.414Z,101984.49
2022-10-22T08:44:19.923Z,101987.91
2022-10-22T08:45:26.382Z,101991.31
2022-10-22T08:46:39.025Z,101985.19
2022-10-22T08:48:18.954Z,101973.61
2022-10-22T08:49:28.367Z,101986.55
2022-10-22T08:50:40.837Z,101982.28
2022-10-22T08:51:43.909Z,101978.91
2022-10-22T08:52:50.385Z,101984.34
2022-10-22T08:54:06.194Z,101973.63
2022-10-22T08:55:14.519Z,101978.72
2022-10-22T08:56:18.223Z,101977.70
2022-10-22T08:58:43.833Z,101974.12
2022-10-22T09:00:15.856Z,101974.48
2022-10-22T09:01:25.169Z,101969.20
2022-10-22T09:03:01.883Z,101966.64
2022-10-22T09:04:17.224Z,101964.12
2022-10-22T09:05:43.301Z,101966.84
2022-10-22T09:06:49.509Z,101961.40
2022-10-22T09:07:52.509Z,101967.00
2022-10-22T09:08:58.600Z,101961.55
2022-10-22T09:10:03.089Z,101967.00
2022-10-22T09:11:15.149Z,101963.27
2022-10-22T09:12:20.298Z,101962.41
2022-10-22T09:13:23.554Z,101965.98
2022-10-22T09:14:26.783Z,101960.55
2022-10-22T09:15:30.973Z,101966.64
2022-10-22T09:16:40.506Z,101957.47
2022-10-22T09:17:46.919Z,101966.98
2022-10-22T09:19:14.725Z,101957.65
2022-10-22T09:20:32.209Z,101963.59
2022-10-22T09:22:10.444Z,101961.56
2022-10-22T09:23:22.632Z,101959.50
2022-10-22T09:24:40.975Z,101961.05
2022-10-22T09:25:44.735Z,101961.73
2022-10-22T09:26:47.651Z,101958.66
2022-10-22T09:27:52.158Z,101956.63
2022-10-22T09:28:58.704Z,101955.42
2022-10-22T09:30:01.848Z,101961.55
2022-10-22T09:31:11.439Z,101954.08
2022-10-22T09:32:14.891Z,101952.02
2022-10-22T09:33:27.017Z,101951.86
2022-10-22T09:34:30.005Z,101946.25
2022-10-22T09:35:48.303Z,101949.83
2022-10-22T09:36:59.666Z,101946.91
2022-10-22T09:38:08.145Z,101941.30
2022-10-22T09:39:25.932Z,101943.86
2022-10-22T09:40:28.771Z,101941.80
2022-10-22T09:41:31.593Z,101933.47
2022-10-22T09:42:34.934Z,101931.44
2022-10-22T09:43:37.889Z,101932.09
2022-10-22T09:44:44.880Z,101938.23
2022-10-22T09:45:46.970Z,101937.05
2022-10-22T09:46:50.185Z,101929.53
2022-10-22T09:48:11.529Z,101939.24
2022-10-22T09:49:20.335Z,101934.65
2022-10-22T09:50:30.558Z,101922.71
2022-10-22T09:51:56.563Z,101931.73
2022-10-22T09:53:15.138Z,101923.40
2022-10-22T09:54:21.752Z,101922.55
2022-10-22T09:55:26.677Z,101926.13
2022-10-22T09:56:41.566Z,101919.66
2022-10-22T09:57:48.264Z,101925.95
2022-10-22T09:58:51.735Z,101918.64
2022-10-22T09:59:56.912Z,101918.28
2022-10-22T10:01:01.063Z,101920.84
2022-10-22T10:02:20.279Z,101917.95
2022-10-22T10:03:27.494Z,101910.44
2022-10-22T10:04:37.058Z,101902.10
2022-10-22T10:05:40.721Z,101903.44
2022-10-22T10:06:44.889Z,101906.00
2022-10-22T10:07:48.074Z,101910.91
2022-10-22T10:08:51.271Z,101895.06
2022-10-22T10:09:54.747Z,101900.00
2022-10-22T10:11:10.309Z,101900.48
2022-10-22T10:12:37.886Z,101900.80
2022-10-22T10:14:03.567Z,101887.49
2022-10-22T10:15:21.941Z,101887.81
2022-10-22T10:16:37.454Z,101890.67
2022-10-22T10:17:52.671Z,101895.41
2022-10-22T10:19:17.159Z,101889.25
2022-10-22T10:20:42.158Z,101893.13
2022-10-22T10:22:03.416Z,101889.02
2022-10-22T10:23:15.746Z,101885.73
2022-10-22T10:24:34.616Z,101887.30
2022-10-22T10:25:50.103Z,101885.23
2022-10-22T10:27:02.975Z,101888.63
2022-10-22T10:28:18.577Z,101881.13
2022-10-22T10:30:53.187Z,101893.19
2022-10-22T10:32:08.655Z,101890.26
2022-10-22T10:33:46.884Z,101888.22
2022-10-22T10:34:53.636Z,101891.80
2022-10-22T10:36:02.848Z,101880.71
2022-10-22T10:37:30.544Z,101876.11
2022-10-22T10:38:56.945Z,101878.63
2022-10-22T10:40:18.715Z,101869.43
2022-10-22T10:41:43.283Z,101866.70
2022-10-22T10:44:42.717Z,101868.95
2022-10-22T10:45:55.700Z,101870.87
2022-10-22T10:47:17.937Z,101864.22
2022-10-22T10:48:30.577Z,101866.74
2022-10-22T10:49:35.415Z,101856.69
2022-10-22T10:51:00.040Z,101861.97
2022-10-22T10:52:21.609Z,101866.22
2022-10-22T10:53:28.067Z,101863.28
2022-10-22T10:54:46.320Z,101870.44
2022-10-22T10:56:02.308Z,101868.56
2022-10-22T10:57:20.875Z,101865.66
2022-10-22T10:58:43.702Z,101861.06
2022-10-22T10:59:54.220Z,101860.03
2022-10-22T11:00:59.971Z,101866.98
2022-10-22T11:02:15.501Z,101867.83
2022-10-22T11:03:38.691Z,101864.93
2022-10-22T11:05:01.670Z,101860.33
2022-10-22T11:06:10.895Z,101865.40
2022-10-22T11:07:34.272Z,101859.94
2022-10-22T11:08:28.641Z,101860.80
2022-10-22T11:09:37.765Z,101859.94
2022-10-22T11:10:47.147Z,101856.54
2022-10-22T11:11:53.392Z,101853.17
2022-10-22T11:13:02.455Z,101856.92
2022-10-22T11:14:18.038Z,101854.37
2022-10-22T11:15:35.274Z,101852.49
2022-10-22T11:16:58.399Z,101847.89
2022-10-22T11:18:06.676Z,101848.73
2022-10-22T11:19:50.242Z,101847.54
2022-10-22T11:20:44.839Z,101850.73
2022-10-22T11:21:51.254Z,101844.89
2022-10-22T11:23:19.471Z,101845.56
2022-10-22T11:24:29.743Z,101843.30
2022-10-22T11:25:38.087Z,101840.22
2022-10-22T11:26:50.794Z,101839.83
2022-10-22T11:28:06.576Z,101838.42
2022-10-22T11:29:08.744Z,101840.80
2022-10-22T11:30:15.610Z,101839.38
2022-10-22T11:31:19.697Z,101842.78
2022-10-22T11:32:25.852Z,101838.81
2022-10-22T11:33:32.411Z,101835.91
2022-10-22T11:34:42.241Z,101844.55
2022-10-22T11:35:46.969Z,101833.28
2022-10-22T11:36:51.864Z,101837.50
2022-10-22T11:37:56.518Z,101831.86
2022-10-22T11:39:01.216Z,101833.55
2022-10-22T11:40:08.071Z,101831.50
2022-10-22T11:41:13.913Z,101823.31
2022-10-22T11:42:22.492Z,101823.31
2022-10-22T11:43:28.610Z,101823.31
2022-10-22T11:44:34.732Z,101822.25
2022-10-22T11:45:40.683Z,101821.43
2022-10-22T11:46:46.947Z,101819.52
2022-10-22T11:48:11.446Z,101821.22
2022-10-22T11:49:18.046Z,101824.80
2022-10-22T11:50:24.916Z,101822.06
2022-10-22T11:51:39.216Z,101824.62
2022-10-22T11:52:51.531Z,101829.23
2022-10-22T11:53:58.207Z,101827.34
2022-10-22T11:55:02.996Z,101824.80
2022-10-22T11:56:12.804Z,101823.77
2022-10-22T11:57:21.723Z,101827.34
2022-10-22T11:58:34.227Z,101826.31
2022-10-22T11:59:42.934Z,101826.31
2022-10-22T12:00:49.555Z,101818.98
2022-10-22T12:01:54.940Z,101808.70
2022-10-22T12:03:01.395Z,101825.92
2022-10-22T12:04:19.895Z,101815.86
2022-10-22T12:05:26.369Z,101822.83
2022-10-22T12:06:31.022Z,101812.55
2022-10-22T12:07:37.063Z,101814.25
2022-10-22T12:08:51.490Z,101804.84
2022-10-22T12:09:55.221Z,101810.95
2022-10-22T12:11:02.001Z,101808.88
2022-10-22T12:12:14.870Z,101805.12
2022-10-22T12:13:26.618Z,101804.91
2022-10-22T12:14:36.511Z,101804.72
2022-10-22T12:15:48.631Z,101803.88
2022-10-22T12:16:57.006Z,101808.48
2022-10-22T12:18:02.149Z,101813.95
2022-10-22T12:19:17.466Z,101806.78
2022-10-22T12:20:24.513Z,101813.31
2022-10-22T12:21:27.381Z,101804.45
2022-10-22T12:22:33.224Z,101802.75
2022-10-22T12:23:36.890Z,101801.05
2022-10-22T12:24:46.435Z,101798.32
2022-10-22T12:25:49.407Z,101797.29
2022-10-22T12:26:52.242Z,101798.14
2022-10-22T12:27:58.345Z,101802.75
2022-10-22T12:29:04.197Z,101801.91
2022-10-22T12:30:20.707Z,101799.17
2022-10-22T12:31:23.676Z,101802.97
2022-10-22T12:32:37.926Z,101793.07
2022-10-22T12:33:40.916Z,101797.87
2022-10-22T12:34:52.195Z,101795.31
2022-10-22T12:35:57.067Z,101794.47
2022-10-22T12:37:03.671Z,101794.68
2022-10-22T12:38:19.683Z,101790.43
2022-10-22T12:39:25.694Z,101786.85
2022-10-22T12:40:32.306Z,101783.48
2022-10-22T12:41:37.827Z,101795.44
2022-10-22T12:42:49.581Z,101796.64
2022-10-22T12:43:55.984Z,101796.64
2022-10-22T12:44:58.919Z,101797.89
2022-10-22T12:46:01.910Z,101800.80
2022-10-22T12:47:07.073Z,101799.28
2022-10-22T12:48:24.979Z,101792.33
2022-10-22T12:49:37.238Z,101802.58
2022-10-22T12:50:43.200Z,101799.39
2022-10-22T12:51:47.358Z,101795.14